Time;durP1;ratioP1;P1;durP2;ratioP2;P2;SDS_P1;SDS_P2;PMS_P1;PMS_P2;Temp;Humidity;BMP_temperature;BMP_pressure;BME280_temperature;BME280_humidity;BME280_pressure;Samples;Min_cycle;Max_cycle;Signal;HPM_P1;HPM_P2
2021/09/01 00:01:02;;;;;;;1.73;0.80;;;21.60;64.90;;;;;;5094879;28;20020;-59
2021/09/01 00:03:27;;;;;;;1.73;0.77;;;21.60;65.00;;;;;;5095080;28;20077;-60
2021/09/01 00:05:53;;;;;;;2.45;0.80;;;21.60;65.10;;;;;;5096547;28;20326;-60
2021/09/01 00:08:18;;;;;;;1.83;0.60;;;21.60;65.00;;;;;;5098791;28;20492;-60
2021/09/01 00:10:44;;;;;;;1.55;0.60;;;21.60;65.00;;;;;;5098123;28;20058;-60
2021/09/01 00:13:10;;;;;;;1.48;0.50;;;21.60;65.10;;;;;;5097893;28;20099;-62
2021/09/01 00:15:35;;;;;;;1.50;0.80;;;21.60;65.10;;;;;;5098611;28;20476;-62
2021/09/01 00:18:01;;;;;;;1.50;0.60;;;21.60;65.10;;;;;;5098400;28;20414;-60
2021/09/01 00:20:27;;;;;;;1.38;0.57;;;21.60;65.10;;;;;;5097334;28;20028;-60
2021/09/01 00:22:53;;;;;;;1.25;0.57;;;21.60;65.20;;;;;;5098284;28;20032;-59
2021/09/01 00:25:19;;;;;;;1.35;0.65;;;21.60;65.10;;;;;;5098292;28;20024;-60
2021/09/01 00:27:45;;;;;;;1.33;0.60;;;21.60;65.10;;;;;;5098645;28;20107;-62
2021/09/01 00:30:11;;;;;;;1.13;0.55;;;21.60;65.10;;;;;;5097303;28;20360;-62
2021/09/01 00:32:37;;;;;;;1.42;0.60;;;21.60;65.10;;;;;;5098209;28;20020;-62
2021/09/01 00:35:02;;;;;;;1.08;0.55;;;21.60;65.10;;;;;;5098382;28;20024;-61
2021/09/01 00:37:28;;;;;;;2.10;0.60;;;21.60;65.10;;;;;;5097118;28;20107;-60
2021/09/01 00:39:54;;;;;;;1.67;0.68;;;21.60;65.10;;;;;;5098316;28;20036;-60
2021/09/01 00:42:19;;;;;;;1.23;0.50;;;21.50;65.10;;;;;;5097857;28;20456;-62
2021/09/01 00:44:46;;;;;;;1.63;0.70;;;21.50;65.10;;;;;;5097841;28;20031;-60
2021/09/01 00:47:12;;;;;;;1.60;0.70;;;21.50;65.10;;;;;;5097911;28;20070;-59
2021/09/01 00:49:37;;;;;;;1.63;0.63;;;21.60;65.10;;;;;;5096931;28;20019;-61
2021/09/01 00:52:04;;;;;;;1.20;0.60;;;21.50;65.10;;;;;;5098040;28;20107;-63
2021/09/01 00:54:30;;;;;;;1.38;0.63;;;21.50;65.10;;;;;;5097983;28;20028;-61
2021/09/01 00:57:04;;;;;;;1.60;0.63;;;21.50;65.10;;;;;;5097046;28;20028;-60
2021/09/01 00:59:31;;;;;;;1.83;0.73;;;21.50;65.10;;;;;;5096709;28;20040;-60
2021/09/01 01:01:57;;;;;;;1.60;0.50;;;21.50;65.20;;;;;;5097619;28;20021;-63
2021/09/01 01:04:26;;;;;;;1.30;0.50;;;21.50;65.20;;;;;;5097614;28;20356;-62
2021/09/01 01:06:51;;;;;;;1.52;0.60;;;21.50;65.10;;;;;;5096984;28;20024;-63
2021/09/01 01:09:17;;;;;;;1.33;0.50;;;21.50;65.10;;;;;;5097513;28;20084;-60
2021/09/01 01:12:09;;;;;;;1.33;0.50;;;21.50;65.20;;;;;;5097486;28;20051;-62
2021/09/01 01:14:44;;;;;;;1.48;0.60;;;21.50;65.20;;;;;;5097657;28;20031;-62
2021/09/01 01:17:11;;;;;;;0.95;0.40;;;21.40;65.20;;;;;;5097097;28;20020;-60
2021/09/01 01:19:39;;;;;;;1.52;0.50;;;21.50;65.30;;;;;;5097404;28;20028;-62
2021/09/01 01:22:05;;;;;;;1.20;0.60;;;21.50;65.20;;;;;;5097147;28;20100;-62
2021/09/01 01:24:49;;;;;;;1.15;0.50;;;21.50;65.20;;;;;;5097041;28;20099;-62
2021/09/01 01:27:19;;;;;;;1.25;0.60;;;21.40;65.20;;;;;;5096997;28;20028;-60
2021/09/01 01:29:45;;;;;;;1.83;0.50;;;21.40;65.10;;;;;;5097154;28;20051;-62
2021/09/01 01:32:11;;;;;;;1.15;0.50;;;21.40;65.90;;;;;;5096870;28;20031;-60
2021/09/01 01:34:36;;;;;;;1.52;0.65;;;21.40;65.20;;;;;;5097592;28;20034;-60
2021/09/01 01:37:07;;;;;;;1.58;0.60;;;21.40;65.20;;;;;;5096000;28;20036;-60
2021/09/01 01:39:33;;;;;;;1.35;0.60;;;21.40;65.30;;;;;;5097043;28;20107;-61
2021/09/01 01:41:59;;;;;;;1.27;0.55;;;21.40;65.20;;;;;;5096752;28;20460;-62
2021/09/01 01:44:24;;;;;;;1.27;0.47;;;21.40;65.10;;;;;;5096928;28;20020;-62
2021/09/01 01:46:50;;;;;;;1.02;0.40;;;21.40;65.30;;;;;;5096968;28;20451;-62
2021/09/01 01:49:18;;;;;;;1.10;0.60;;;21.40;65.20;;;;;;5097036;28;20444;-62
2021/09/01 01:51:51;;;;;;;1.15;0.50;;;21.40;65.20;;;;;;5096928;28;20032;-61
2021/09/01 01:54:16;;;;;;;0.98;0.40;;;21.40;65.20;;;;;;5096765;28;20124;-62
2021/09/01 01:56:42;;;;;;;1.48;0.43;;;21.40;65.30;;;;;;5096740;28;20059;-61
2021/09/01 01:59:08;;;;;;;2.10;0.60;;;21.40;65.30;;;;;;5096462;28;20051;-61
2021/09/01 02:01:33;;;;;;;1.63;0.60;;;21.30;65.20;;;;;;5096367;28;20448;-61
2021/09/01 02:03:59;;;;;;;1.20;0.50;;;21.30;65.30;;;;;;5096726;28;20020;-62
2021/09/01 02:06:26;;;;;;;1.40;0.52;;;21.40;65.30;;;;;;5096731;28;20043;-61
2021/09/01 02:08:52;;;;;;;1.52;0.60;;;21.40;65.20;;;;;;5096416;28;20025;-62
2021/09/01 02:11:17;;;;;;;1.50;0.60;;;21.30;65.30;;;;;;5096286;28;20107;-61
2021/09/01 02:13:43;;;;;;;1.10;0.50;;;21.30;65.30;;;;;;5095621;28;20028;-62
2021/09/01 02:16:08;;;;;;;1.40;0.60;;;21.30;65.30;;;;;;5096523;28;20027;-62
2021/09/01 02:18:34;;;;;;;1.20;0.40;;;21.30;65.20;;;;;;5096392;28;20031;-61
2021/09/01 02:21:00;;;;;;;1.23;0.60;;;21.30;65.30;;;;;;5096348;28;20107;-61
2021/09/01 02:23:25;;;;;;;1.63;0.60;;;21.30;65.30;;;;;;5096353;28;20428;-62
2021/09/01 02:25:51;;;;;;;0.98;0.35;;;21.30;65.30;;;;;;5096335;28;20448;-61
2021/09/01 02:28:17;;;;;;;1.35;0.60;;;21.30;65.30;;;;;;5095796;28;20051;-60
2021/09/01 02:30:42;;;;;;;0.90;0.30;;;21.30;65.30;;;;;;5096117;28;20185;-61
2021/09/01 02:33:08;;;;;;;0.60;0.35;;;21.30;65.30;;;;;;5095863;28;20024;-61
2021/09/01 02:35:33;;;;;;;1.55;0.63;;;21.30;65.30;;;;;;5096176;28;20024;-60
2021/09/01 02:37:59;;;;;;;1.38;0.50;;;21.30;65.30;;;;;;5095863;28;20107;-60
2021/09/01 02:40:25;;;;;;;0.93;0.40;;;21.30;65.30;;;;;;5096091;28;20074;-61
2021/09/01 02:42:50;;;;;;;1.17;0.50;;;21.30;65.90;;;;;;5095699;28;20016;-60
2021/09/01 02:45:17;;;;;;;1.30;0.50;;;21.20;65.20;;;;;;5095773;28;20107;-60
2021/09/01 02:47:45;;;;;;;1.25;0.45;;;21.30;65.30;;;;;;5096073;28;20024;-60
2021/09/01 02:50:11;;;;;;;1.45;0.52;;;21.30;65.40;;;;;;5095634;28;20367;-62
2021/09/01 02:52:37;;;;;;;1.25;0.50;;;21.30;65.30;;;;;;5095827;28;20028;-60
2021/09/01 02:55:04;;;;;;;1.02;0.50;;;21.30;65.30;;;;;;5095930;28;20036;-60
2021/09/01 02:57:30;;;;;;;2.45;0.50;;;21.30;65.40;;;;;;5095417;28;20020;-59
2021/09/01 02:59:55;;;;;;;1.17;0.45;;;21.30;65.40;;;;;;5095634;28;20359;-60
2021/09/01 03:02:21;;;;;;;1.55;0.60;;;21.20;65.20;;;;;;5095931;28;20020;-61
2021/09/01 03:04:47;;;;;;;1.02;0.43;;;21.20;65.30;;;;;;5095926;28;20049;-61
2021/09/01 03:07:12;;;;;;;1.23;0.45;;;21.20;65.30;;;;;;5095720;28;20035;-60
2021/09/01 03:09:38;;;;;;;1.00;0.47;;;21.20;65.30;;;;;;5095771;28;20016;-60
2021/09/01 03:12:04;;;;;;;1.15;0.50;;;21.20;65.40;;;;;;5094596;28;20085;-60
2021/09/01 03:14:29;;;;;;;1.08;0.40;;;21.20;65.30;;;;;;5095676;28;20409;-60
2021/09/01 03:16:55;;;;;;;2.03;0.70;;;21.20;65.30;;;;;;5095348;28;20024;-60
2021/09/01 03:19:22;;;;;;;0.70;0.30;;;21.20;65.30;;;;;;5095411;28;20024;-60
2021/09/01 03:21:48;;;;;;;0.70;0.30;;;21.20;65.40;;;;;;5094683;28;20052;-60
2021/09/01 03:24:14;;;;;;;0.95;0.50;;;21.20;66.00;;;;;;5094709;28;20082;-61
2021/09/01 03:26:39;;;;;;;0.90;0.32;;;21.20;65.30;;;;;;5095612;28;20020;-60
2021/09/01 03:29:05;;;;;;;0.88;0.50;;;21.20;65.40;;;;;;5095464;28;20031;-61
2021/09/01 03:31:31;;;;;;;0.85;0.40;;;21.20;65.30;;;;;;5095576;28;20023;-60
2021/09/01 03:33:56;;;;;;;1.27;0.40;;;21.20;65.40;;;;;;5095454;28;20035;-62
2021/09/01 03:36:22;;;;;;;0.90;0.50;;;21.20;65.40;;;;;;5095526;28;20423;-62
2021/09/01 03:38:48;;;;;;;1.75;0.47;;;21.20;65.40;;;;;;5095101;28;20440;-62
2021/09/01 03:41:13;;;;;;;0.90;0.40;;;21.20;65.40;;;;;;5097461;28;20028;-60
2021/09/01 03:43:39;;;;;;;1.88;0.63;;;21.20;65.40;;;;;;5099638;28;20028;-61
2021/09/01 03:46:05;;;;;;;0.95;0.47;;;21.20;65.20;;;;;;5099303;28;20422;-61
2021/09/01 03:48:30;;;;;;;1.60;0.60;;;21.10;65.30;;;;;;5098511;28;20042;-61
2021/09/01 03:50:56;;;;;;;1.13;0.30;;;21.20;65.40;;;;;;5099056;28;20035;-61
2021/09/01 03:53:22;;;;;;;1.63;0.52;;;21.10;65.40;;;;;;5099140;28;20028;-60
2021/09/01 03:55:47;;;;;;;1.67;0.50;;;21.10;65.30;;;;;;5099158;28;20046;-61
2021/09/01 03:58:13;;;;;;;1.27;0.52;;;21.10;65.40;;;;;;5098738;28;20420;-60
2021/09/01 04:00:40;;;;;;;1.90;0.40;;;21.10;65.30;;;;;;5098887;28;20103;-60
2021/09/01 04:03:06;;;;;;;0.75;0.40;;;21.10;65.40;;;;;;5098668;28;20574;-62
2021/09/01 04:05:32;;;;;;;1.15;0.43;;;21.10;65.40;;;;;;5099052;28;20070;-61
2021/09/01 04:07:57;;;;;;;0.60;0.30;;;21.10;65.40;;;;;;5099043;28;20016;-61
2021/09/01 04:10:23;;;;;;;1.10;0.50;;;21.10;65.40;;;;;;5098793;28;20028;-62
2021/09/01 04:12:49;;;;;;;1.65;0.60;;;21.10;65.30;;;;;;5099163;28;20024;-60
2021/09/01 04:15:14;;;;;;;0.95;0.40;;;21.10;65.40;;;;;;5097604;28;20460;-61
2021/09/01 04:17:40;;;;;;;1.25;0.40;;;21.10;65.40;;;;;;5098350;28;20458;-60
2021/09/01 04:20:07;;;;;;;1.38;0.50;;;21.10;65.40;;;;;;5098334;28;20088;-63
2021/09/01 04:22:33;;;;;;;1.15;0.35;;;21.10;65.40;;;;;;5098288;28;20326;-61
2021/09/01 04:24:58;;;;;;;1.10;0.40;;;21.10;65.40;;;;;;5098032;28;20031;-61
2021/09/01 04:27:24;;;;;;;1.20;0.45;;;21.10;65.30;;;;;;5098275;28;20352;-60
2021/09/01 04:29:50;;;;;;;1.80;0.60;;;21.10;65.40;;;;;;5098691;28;20032;-60
2021/09/01 04:32:15;;;;;;;1.33;0.40;;;21.00;65.40;;;;;;5098573;28;20035;-60
2021/09/01 04:34:41;;;;;;;0.93;0.40;;;21.10;65.50;;;;;;5098371;28;20028;-62
2021/09/01 04:37:07;;;;;;;1.17;0.50;;;21.10;65.50;;;;;;5098328;28;20024;-62
2021/09/01 04:39:32;;;;;;;2.50;0.47;;;21.10;65.40;;;;;;5098358;28;20429;-62
2021/09/01 04:41:58;;;;;;;1.27;0.40;;;21.00;65.30;;;;;;5098272;28;20028;-61
2021/09/01 04:44:24;;;;;;;1.10;0.38;;;21.00;65.30;;;;;;5098732;28;20031;-61
2021/09/01 04:46:49;;;;;;;1.50;0.60;;;21.00;65.40;;;;;;5098561;28;20054;-60
2021/09/01 04:49:15;;;;;;;1.17;0.50;;;21.00;65.40;;;;;;5098067;28;20038;-62
2021/09/01 04:51:40;;;;;;;0.77;0.30;;;21.00;65.40;;;;;;5097436;28;20024;-61
2021/09/01 04:54:06;;;;;;;1.50;0.43;;;21.00;65.40;;;;;;5096900;28;20039;-60
2021/09/01 04:56:32;;;;;;;1.65;0.50;;;21.00;65.40;;;;;;5098091;28;20434;-60
2021/09/01 04:58:57;;;;;;;0.68;0.32;;;21.00;65.40;;;;;;5097639;28;20073;-62
2021/09/01 05:01:23;;;;;;;0.90;0.28;;;21.00;65.40;;;;;;5097907;28;20439;-60
2021/09/01 05:03:49;;;;;;;1.10;0.50;;;21.00;65.50;;;;;;5097497;28;20016;-62
2021/09/01 05:06:14;;;;;;;1.63;0.50;;;21.00;65.30;;;;;;5097990;28;20020;-61
2021/09/01 05:08:40;;;;;;;1.20;0.52;;;21.00;65.30;;;;;;5097776;28;20028;-61
2021/09/01 05:11:06;;;;;;;0.60;0.30;;;21.00;65.40;;;;;;5096835;28;20085;-60
2021/09/01 05:13:31;;;;;;;1.95;0.65;;;21.00;65.40;;;;;;5097272;28;20028;-62
2021/09/01 05:15:57;;;;;;;1.00;0.40;;;21.00;65.40;;;;;;5097610;28;20043;-61
2021/09/01 05:18:23;;;;;;;1.00;0.47;;;21.00;65.40;;;;;;5097653;28;20043;-61
2021/09/01 05:20:48;;;;;;;0.98;0.50;;;21.00;65.40;;;;;;5097481;28;20016;-62
2021/09/01 05:23:15;;;;;;;1.10;0.40;;;21.00;65.50;;;;;;5096549;28;20115;-60
2021/09/01 05:25:41;;;;;;;1.10;0.50;;;20.90;65.40;;;;;;5096706;28;20407;-62
2021/09/01 05:28:06;;;;;;;1.08;0.50;;;21.00;65.40;;;;;;5097363;28;20044;-61
2021/09/01 05:30:32;;;;;;;0.85;0.40;;;21.00;65.30;;;;;;5097148;28;20024;-62
2021/09/01 05:32:58;;;;;;;1.48;0.40;;;20.90;65.40;;;;;;5097305;28;20052;-61
2021/09/01 05:35:23;;;;;;;1.40;0.55;;;21.00;65.40;;;;;;5095998;28;20020;-61
2021/09/01 05:37:49;;;;;;;1.15;0.40;;;21.00;65.40;;;;;;5097152;28;20024;-61
2021/09/01 05:40:15;;;;;;;1.20;0.47;;;20.90;65.40;;;;;;5096862;28;20031;-63
2021/09/01 05:42:40;;;;;;;2.67;0.73;;;21.00;65.40;;;;;;5096003;28;20437;-60
2021/09/01 05:45:06;;;;;;;1.02;0.40;;;21.00;65.40;;;;;;5096967;28;20043;-62
2021/09/01 05:47:32;;;;;;;1.10;0.50;;;20.90;65.30;;;;;;5087981;28;20092;-62
2021/09/01 05:49:58;;;;;;;1.20;0.47;;;20.90;65.40;;;;;;5094258;28;20031;-60
2021/09/01 05:52:24;;;;;;;1.25;0.50;;;20.90;65.40;;;;;;5094819;28;20452;-60
2021/09/01 05:54:50;;;;;;;1.70;0.50;;;20.90;65.40;;;;;;5095205;28;20024;-59
2021/09/01 05:57:36;;;;;;;1.30;0.40;;;20.90;65.40;;;;;;5094342;28;20040;-61
2021/09/01 06:00:04;;;;;;;1.20;0.50;;;20.90;65.40;;;;;;5093509;28;20050;-62
2021/09/01 06:02:51;;;;;;;0.98;0.40;;;20.90;65.40;;;;;;5093936;28;20093;-62
2021/09/01 06:05:17;;;;;;;1.63;0.50;;;20.90;65.40;;;;;;5090484;28;20034;-62
2021/09/01 06:07:52;;;;;;;1.45;0.60;;;20.90;65.40;;;;;;5091755;28;20028;-61
2021/09/01 06:10:22;;;;;;;1.25;0.40;;;20.90;65.40;;;;;;5092705;28;20052;-61
2021/09/01 06:12:47;;;;;;;1.00;0.40;;;20.90;65.40;;;;;;5094290;28;20381;-63
2021/09/01 06:15:13;;;;;;;1.90;0.60;;;20.90;65.40;;;;;;5076166;28;20111;-62
2021/09/01 06:17:38;;;;;;;1.48;0.50;;;20.90;65.40;;;;;;5094117;28;20027;-60
2021/09/01 06:20:05;;;;;;;1.23;0.50;;;20.90;65.40;;;;;;5094036;28;20463;-62
2021/09/01 06:22:31;;;;;;;1.25;0.47;;;20.90;65.40;;;;;;5092462;28;20036;-60
2021/09/01 06:24:57;;;;;;;1.00;0.40;;;20.90;65.40;;;;;;5075594;28;20028;-62
2021/09/01 06:27:22;;;;;;;1.48;0.50;;;20.90;65.30;;;;;;5093586;28;20035;-60
2021/09/01 06:29:48;;;;;;;1.13;0.50;;;20.90;65.30;;;;;;5093738;28;20424;-60
2021/09/01 06:32:14;;;;;;;1.35;0.40;;;20.90;65.40;;;;;;5093720;28;20085;-60
2021/09/01 06:34:40;;;;;;;0.80;0.40;;;20.90;65.30;;;;;;5093576;28;20373;-62
2021/09/01 06:37:06;;;;;;;1.10;0.50;;;20.90;65.30;;;;;;5093138;28;20039;-61
2021/09/01 06:39:32;;;;;;;0.90;0.32;;;20.90;65.30;;;;;;5093206;28;20032;-60
2021/09/01 06:41:57;;;;;;;1.55;0.60;;;20.90;65.30;;;;;;5093450;28;20031;-60
2021/09/01 06:44:23;;;;;;;0.93;0.40;;;20.90;65.30;;;;;;5093199;28;20456;-63
2021/09/01 06:46:49;;;;;;;1.30;0.50;;;20.90;65.30;;;;;;5091869;28;20081;-60
2021/09/01 06:49:14;;;;;;;0.82;0.40;;;20.90;65.30;;;;;;5093300;28;20105;-59
2021/09/01 06:51:40;;;;;;;1.13;0.40;;;20.90;65.30;;;;;;5093222;28;20070;-60
2021/09/01 06:54:06;;;;;;;0.82;0.40;;;20.90;65.30;;;;;;5092751;28;20067;-60
2021/09/01 06:56:31;;;;;;;0.63;0.30;;;20.90;65.30;;;;;;5092750;28;20032;-61
2021/09/01 06:58:57;;;;;;;1.15;0.40;;;20.90;65.30;;;;;;5092473;28;20126;-61
2021/09/01 07:01:23;;;;;;;0.90;0.43;;;20.90;65.20;;;;;;5092853;28;20071;-61
2021/09/01 07:03:50;;;;;;;1.33;0.50;;;20.90;65.20;;;;;;5092662;28;20107;-61
2021/09/01 07:06:16;;;;;;;1.15;0.40;;;21.00;65.90;;;;;;5092845;28;20068;-60
2021/09/01 07:08:42;;;;;;;1.00;0.40;;;21.00;65.20;;;;;;5092939;28;20122;-59
2021/09/01 07:11:07;;;;;;;0.73;0.40;;;20.90;65.20;;;;;;5092798;28;20368;-59
2021/09/01 07:13:33;;;;;;;1.00;0.40;;;20.90;65.20;;;;;;5092788;28;20405;-61
2021/09/01 07:15:59;;;;;;;1.20;0.47;;;20.90;65.10;;;;;;5095722;28;20020;-63
2021/09/01 07:18:24;;;;;;;1.13;0.47;;;20.90;65.10;;;;;;5097189;28;20476;-61
2021/09/01 07:20:50;;;;;;;1.17;0.50;;;20.90;65.10;;;;;;5097199;28;20028;-60
2021/09/01 07:23:16;;;;;;;1.10;0.45;;;20.90;65.10;;;;;;5097132;28;20084;-62
2021/09/01 07:25:42;;;;;;;0.70;0.32;;;20.90;65.10;;;;;;5095367;28;20046;-60
2021/09/01 07:28:08;;;;;;;1.33;0.50;;;20.90;65.70;;;;;;5096695;28;20059;-60
2021/09/01 07:30:33;;;;;;;1.15;0.50;;;20.90;65.10;;;;;;5095326;28;20028;-60
2021/09/01 07:32:59;;;;;;;1.23;0.50;;;20.90;65.10;;;;;;5096643;28;20031;-60
2021/09/01 07:35:25;;;;;;;0.70;0.38;;;21.00;65.10;;;;;;5096629;28;20103;-60
2021/09/01 07:37:51;;;;;;;1.20;0.43;;;20.90;65.10;;;;;;5095096;28;20027;-60
2021/09/01 07:40:18;;;;;;;0.95;0.40;;;21.00;65.10;;;;;;5096646;28;20117;-60
2021/09/01 07:42:44;;;;;;;1.88;0.80;;;21.00;65.10;;;;;;5095327;28;20017;-62
2021/09/01 07:45:10;;;;;;;1.80;0.90;;;21.00;65.00;;;;;;5096593;28;20153;-60
2021/09/01 07:47:36;;;;;;;2.25;1.50;;;21.00;65.00;;;;;;5096097;28;20040;-61
2021/09/01 07:50:03;;;;;;;2.42;1.40;;;21.00;65.00;;;;;;5096322;28;20463;-62
2021/09/01 07:52:29;;;;;;;3.08;1.90;;;21.00;64.90;;;;;;5096439;28;20042;-62
2021/09/01 07:54:54;;;;;;;3.97;3.25;;;21.00;64.90;;;;;;5096365;28;20032;-60
2021/09/01 07:57:20;;;;;;;4.72;4.22;;;21.00;64.90;;;;;;5096125;28;20126;-60
2021/09/01 07:59:45;;;;;;;4.53;3.42;;;21.00;64.90;;;;;;5096293;28;20131;-61
2021/09/01 08:02:11;;;;;;;3.70;3.05;;;21.00;64.90;;;;;;5095083;28;20070;-62
2021/09/01 08:04:37;;;;;;;5.05;4.07;;;21.00;64.90;;;;;;5095855;28;20077;-62
2021/09/01 08:07:02;;;;;;;4.70;4.20;;;21.00;64.80;;;;;;5095908;28;20032;-61
2021/09/01 08:09:28;;;;;;;4.78;4.05;;;21.00;64.80;;;;;;5096004;28;20115;-61
2021/09/01 08:11:54;;;;;;;5.15;4.00;;;21.00;64.80;;;;;;5095727;28;20080;-62
2021/09/01 08:14:19;;;;;;;4.88;4.13;;;21.00;64.70;;;;;;5095827;28;20523;-61
2021/09/01 08:16:45;;;;;;;4.03;3.60;;;21.00;64.70;;;;;;5095836;28;20089;-62
2021/09/01 08:19:11;;;;;;;4.22;3.83;;;21.00;64.70;;;;;;5095013;28;20032;-62
2021/09/01 08:21:36;;;;;;;4.30;3.42;;;21.10;65.30;;;;;;5094853;28;20039;-60
2021/09/01 08:24:02;;;;;;;4.80;4.30;;;21.10;64.60;;;;;;5094980;28;20024;-62
2021/09/01 08:26:28;;;;;;;4.60;4.10;;;21.10;64.60;;;;;;5094210;28;20448;-62
2021/09/01 08:28:53;;;;;;;4.00;3.28;;;21.10;64.50;;;;;;5095476;28;20024;-62
2021/09/01 08:31:19;;;;;;;4.30;3.40;;;21.10;64.50;;;;;;5095516;28;20024;-62
2021/09/01 08:33:45;;;;;;;4.43;3.60;;;21.10;64.50;;;;;;5095512;28;20078;-60
2021/09/01 08:36:10;;;;;;;3.90;3.30;;;21.10;64.40;;;;;;5095566;28;20092;-60
2021/09/01 08:38:36;;;;;;;3.75;3.35;;;21.20;64.40;;;;;;5095446;28;20471;-61
2021/09/01 08:41:02;;;;;;;4.10;3.42;;;21.20;64.40;;;;;;5095700;28;20044;-62
2021/09/01 08:43:27;;;;;;;5.53;4.00;;;21.20;64.40;;;;;;5095507;28;20511;-60
2021/09/01 08:45:53;;;;;;;5.22;4.18;;;21.20;64.30;;;;;;5095353;28;20363;-62
2021/09/01 08:48:19;;;;;;;4.55;3.70;;;21.20;64.30;;;;;;5094359;28;20024;-61
2021/09/01 08:50:44;;;;;;;5.03;3.58;;;21.20;64.30;;;;;;5095314;28;20094;-61
2021/09/01 08:53:10;;;;;;;4.05;3.00;;;21.20;64.20;;;;;;5076942;28;20456;-60
2021/09/01 08:55:36;;;;;;;3.85;3.25;;;21.20;64.20;;;;;;5094849;28;20115;-61
2021/09/01 08:58:02;;;;;;;3.88;3.08;;;21.20;64.10;;;;;;5094507;28;20119;-61
2021/09/01 09:00:27;;;;;;;4.32;3.08;;;21.30;64.10;;;;;;5094285;28;20030;-60
2021/09/01 09:03:01;;;;;;;3.50;2.83;;;21.30;64.10;;;;;;5094514;28;20028;-60
2021/09/01 09:05:38;;;;;;;4.38;3.30;;;21.30;64.00;;;;;;5093984;28;20036;-70
2021/09/01 09:08:05;;;;;;;3.63;2.92;;;21.30;63.90;;;;;;5093084;28;20016;-71
2021/09/01 09:10:41;;;;;;;3.15;2.47;;;21.30;63.70;;;;;;5058796;28;20043;-71
2021/09/01 09:13:07;;;;;;;;;;;21.30;63.70;;;;;;5085580;28;20031;-74
2021/09/01 09:15:33;;;;;;;;;;;21.30;63.70;;;;;;5077182;28;19985;-72
2021/09/01 09:17:59;;;;;;;3.53;2.77;;;21.40;63.70;;;;;;5092449;28;20337;-71
2021/09/01 09:20:27;;;;;;;4.15;2.80;;;21.40;63.70;;;;;;5074967;28;20028;-72
2021/09/01 09:22:53;;;;;;;4.55;3.25;;;21.40;63.60;;;;;;5091872;28;20024;-71
2021/09/01 09:25:31;;;;;;;4.47;3.40;;;21.40;63.50;;;;;;5058984;28;20066;-71
2021/09/01 09:28:00;;;;;;;4.95;4.15;;;21.40;63.50;;;;;;5076982;28;20028;-72
2021/09/01 09:30:33;;;;;;;6.60;5.00;;;21.40;63.40;;;;;;5093145;28;20483;-71
2021/09/01 09:33:19;;;;;;;6.47;4.95;;;21.40;64.00;;;;;;5091788;28;20054;-70
2021/09/01 09:36:03;;;;;;;5.78;4.40;;;21.50;63.40;;;;;;5076044;28;20360;-72
2021/09/01 09:38:47;;;;;;;4.80;4.15;;;21.50;63.30;;;;;;5091215;28;20862;-71
2021/09/01 09:41:24;;;;;;;5.55;4.55;;;21.50;63.30;;;;;;5092805;28;20395;-72
2021/09/01 09:43:50;;;;;;;;;;;21.50;63.10;;;;;;5076363;28;20400;-72
2021/09/01 09:46:16;;;;;;;5.95;5.35;;;21.60;63.10;;;;;;5094017;28;19923;-71
2021/09/01 09:48:44;;;;;;;5.07;4.32;;;21.60;63.10;;;;;;5058176;28;20054;-70
2021/09/01 09:51:12;;;;;;;5.28;4.75;;;21.60;63.00;;;;;;5059243;28;20028;-71
2021/09/01 09:53:40;;;;;;;5.53;4.90;;;21.70;62.90;;;;;;5093597;28;20326;-70
2021/09/01 09:56:10;;;;;;;5.07;4.53;;;21.70;62.90;;;;;;5092609;28;20027;-71
2021/09/01 09:58:38;;;;;;;5.38;4.38;;;21.70;62.90;;;;;;5089726;28;20078;-70
2021/09/01 10:01:05;;;;;;;4.97;4.32;;;21.70;62.80;;;;;;5076089;28;20031;-71
2021/09/01 10:03:31;;;;;;;5.20;4.38;;;21.70;62.80;;;;;;5075943;28;20111;-70
2021/09/01 10:05:59;;;;;;;4.20;3.67;;;21.70;62.80;;;;;;5075777;28;20107;-70
2021/09/01 10:08:26;;;;;;;4.63;4.13;;;21.80;62.60;;;;;;5092617;28;20074;-71
2021/09/01 10:10:52;;;;;;;4.97;4.10;;;21.70;62.60;;;;;;5074252;28;20078;-70
2021/09/01 10:13:18;;;;;;;4.00;3.55;;;21.80;62.50;;;;;;5074086;28;20056;-71
2021/09/01 10:15:44;;;;;;;4.65;3.97;;;21.80;62.50;;;;;;5074359;28;20047;-70
2021/09/01 10:18:09;;;;;;;4.55;3.85;;;21.80;62.60;;;;;;5075683;28;20028;-72
2021/09/01 10:20:41;;;;;;;3.92;3.45;;;21.80;62.40;;;;;;5076037;28;20028;-72
2021/09/01 10:23:07;;;;;;;3.90;3.45;;;21.80;62.50;;;;;;5059092;28;20024;-72
2021/09/01 10:25:34;;;;;;;4.40;3.60;;;21.80;63.00;;;;;;5075599;28;20028;-72
2021/09/01 10:28:21;;;;;;;4.13;3.60;;;21.90;62.30;;;;;;5075751;28;20024;-73
2021/09/01 10:31:24;;;;;;;3.85;2.97;;;21.90;62.30;;;;;;5091990;28;20028;-72
2021/09/01 10:33:52;;;;;;;4.15;3.45;;;21.90;62.20;;;;;;5092578;28;20039;-71
2021/09/01 10:36:27;;;;;;;4.22;3.28;;;21.90;62.20;;;;;;5075364;28;20020;-70
2021/09/01 10:38:56;;;;;;;4.13;3.38;;;21.90;62.10;;;;;;5091543;28;20023;-73
2021/09/01 10:41:30;;;;;;;4.07;3.55;;;21.90;62.10;;;;;;5073524;28;20408;-70
2021/09/01 10:44:42;;;;;;;5.78;5.18;;;22.00;62.10;;;;;;5091461;28;20034;-70
2021/09/01 10:47:08;;;;;;;9.93;8.95;;;22.00;62.10;;;;;;5092216;28;20059;-72
2021/09/01 10:49:54;;;;;;;8.57;7.68;;;22.00;62.10;;;;;;5074294;28;20032;-70
2021/09/01 10:52:19;;;;;;;8.75;7.95;;;22.00;62.00;;;;;;5091701;28;20020;-71
2021/09/01 10:54:45;;;;;;;9.25;8.45;;;22.00;61.90;;;;;;5071580;28;20057;-70
2021/09/01 10:57:30;;;;;;;9.32;8.43;;;22.00;61.90;;;;;;5075501;28;20028;-70
2021/09/01 10:59:57;;;;;;;9.38;8.38;;;22.10;61.90;;;;;;5092811;28;20039;-71
2021/09/01 11:02:24;;;;;;;10.05;8.57;;;22.10;61.70;;;;;;5090779;28;20040;-71
2021/09/01 11:04:51;;;;;;;11.13;8.93;;;22.10;61.70;;;;;;5091933;28;20111;-70
2021/09/01 11:07:24;;;;;;;10.88;7.43;;;22.20;61.70;;;;;;5075097;28;20027;-71
2021/09/01 11:09:51;;;;;;;12.02;7.50;;;22.20;61.60;;;;;;5074875;28;20515;-71
2021/09/01 11:12:16;;;;;;;9.10;6.38;;;22.20;62.10;;;;;;5092566;28;20062;-72
2021/09/01 11:14:43;;;;;;;11.15;6.88;;;22.20;61.50;;;;;;5092497;28;20059;-71
2021/09/01 11:17:18;;;;;;;9.25;6.82;;;22.20;61.50;;;;;;5074694;28;20451;-70
2021/09/01 11:19:45;;;;;;;8.10;6.80;;;22.20;61.40;;;;;;5090470;28;20021;-70
2021/09/01 11:22:13;;;;;;;7.55;6.60;;;22.20;61.50;;;;;;5073694;28;20340;-71
2021/09/01 11:25:05;;;;;;;7.75;6.80;;;22.20;61.40;;;;;;5074716;28;20016;-69
2021/09/01 11:27:31;;;;;;;7.97;5.70;;;22.20;61.50;;;;;;5091812;28;20060;-70
2021/09/01 11:30:08;;;;;;;8.20;6.38;;;22.30;61.50;;;;;;5074554;28;20389;-71
2021/09/01 11:32:33;;;;;;;8.73;6.18;;;22.20;61.40;;;;;;5090444;28;20024;-70
2021/09/01 11:35:01;;;;;;;6.57;5.63;;;22.20;61.50;;;;;;5057686;28;20463;-70
2021/09/01 11:37:26;;;;;;;8.10;6.45;;;22.20;62.00;;;;;;5072352;28;20068;-70
2021/09/01 11:39:52;;;;;;;8.38;5.70;;;22.20;61.50;;;;;;5074455;28;20024;-70
2021/09/01 11:42:18;;;;;;;8.20;6.00;;;22.20;61.50;;;;;;5090491;28;20023;-70
2021/09/01 11:44:53;;;;;;;8.88;6.03;;;22.20;61.60;;;;;;5091772;28;20024;-70
2021/09/01 11:47:19;;;;;;;9.38;5.90;;;22.20;61.60;;;;;;5074306;28;20067;-70
2021/09/01 11:49:45;;;;;;;7.10;5.50;;;22.20;61.50;;;;;;5074418;28;20115;-72
2021/09/01 11:52:10;;;;;;;8.68;5.38;;;22.20;61.60;;;;;;5090448;28;20445;-72
2021/09/01 11:54:40;;;;;;;6.90;5.22;;;22.20;61.60;;;;;;5088507;28;20384;-72
2021/09/01 11:57:06;;;;;;;7.05;5.55;;;22.20;61.60;;;;;;5091557;28;20103;-70
2021/09/01 11:59:31;;;;;;;5.70;4.90;;;22.20;61.60;;;;;;5057367;28;20131;-72
2021/09/01 12:01:58;;;;;;;6.22;4.53;;;22.20;61.60;;;;;;5075424;28;20043;-70
2021/09/01 12:04:24;;;;;;;5.97;5.03;;;22.20;61.60;;;;;;5078096;28;20043;-70
2021/09/01 12:06:58;;;;;;;5.63;4.82;;;22.20;61.60;;;;;;5094395;28;20050;-70
2021/09/01 12:09:25;;;;;;;6.05;5.28;;;22.30;61.60;;;;;;5093800;28;20031;-70
2021/09/01 12:11:53;;;;;;;7.30;5.30;;;22.20;61.60;;;;;;5095483;28;20105;-70
2021/09/01 12:14:23;;;;;;;5.30;4.80;;;22.30;61.60;;;;;;5077920;28;20027;-70
2021/09/01 12:16:49;;;;;;;6.43;5.10;;;22.30;61.60;;;;;;5078398;28;20104;-71
2021/09/01 12:19:15;;;;;;;6.63;6.03;;;22.20;61.50;;;;;;5078063;28;20028;-72
2021/09/01 12:21:52;;;;;;;11.15;10.00;;;22.30;61.50;;;;;;5077700;28;20031;-72
2021/09/01 12:24:37;;;;;;;7.15;5.85;;;22.20;61.50;;;;;;5060760;28;20081;-70
2021/09/01 12:27:03;;;;;;;6.88;6.13;;;22.30;61.50;;;;;;5079955;28;20456;-71
2021/09/01 12:29:32;;;;;;;9.20;8.25;;;22.30;61.50;;;;;;5093289;28;20117;-70
2021/09/01 12:31:59;;;;;;;8.95;8.00;;;22.30;61.50;;;;;;5095077;28;20046;-69
2021/09/01 12:34:27;;;;;;;10.38;9.13;;;22.30;61.40;;;;;;5093775;28;20414;-63
2021/09/01 12:37:14;;;;;;;12.20;9.90;;;22.30;61.50;;;;;;5075970;28;20028;-69
2021/09/01 12:39:41;;;;;;;10.63;9.57;;;22.40;61.40;;;;;;5094122;28;20024;-67
2021/09/01 12:42:39;;;;;;;11.15;8.95;;;22.30;61.40;;;;;;5094016;28;20314;-68
2021/09/01 12:45:05;;;;;;;9.18;8.13;;;22.40;61.30;;;;;;5092963;28;20031;-72
2021/09/01 12:47:31;;;;;;;8.88;7.97;;;22.40;61.30;;;;;;5094712;28;20028;-68
2021/09/01 12:50:01;;;;;;;10.45;7.25;;;22.40;61.30;;;;;;5094070;28;20035;-70